Tiempo atmosférico en la estación meteorológica de Atzeneta Del Maestrat, Castelló/Castellón (420 m.)



Fecha
DESCASC
Temp. máxima en grados centígrados (hora)
DESCASC
Temp. mínima en grados centígrados (hora)
DESCASC
Temp. media en grados centígrados
DESCASC
Racha de viento máxima en m/sg (hora)
DESCASC
Velocidad máxima media en intervalos de 10 minutos(hora)
DESCASC
Precipitaciones diarias en mm
DESCASC
Precipitaciones de 00:00 a 06:00 en mm
DESCASC
Precipitaciones de 06:00 a 12:00 en mm
DESCASC
Precipitaciones de 12:00 a 18:00 en mm
DESCASC
Precipitaciones de 18:00 a 24:00 en mm
DESCASC
19-04-2018 20.4 (16:50) 7.1 (07:30) 13.7 8.61 (14:00) 5.28 (13:10) 0 0 0 0 0
18-04-2018 25 (14:50) 6.8 (07:20) 15.9 8.33 (15:40) 4.72 (16:20) 0 0 0 0 0
17-04-2018 23.5 (14:10) 5.7 (07:10) 14.6 8.33 (15:10) 5 (16:30) 0 0 0 0 0
16-04-2018 17.3 (15:20) 10.4 (23:59) 13.8 10.28 (14:20) 5.56 (14:50) 2.6 0 2.4 0.2 0
15-04-2018 23.6 (13:30) 3.6 (00:00) 13.6 6.67 (14:30) 4.17 (13:00) 0 0 0 0 0
14-04-2018 17.8 (14:40) 4.7 (00:00) 11.2 9.72 (17:10) 6.11 (17:30) 0 0 0 0 0
13-04-2018 17.6 (18:00) 7.1 (00:00) 12.4 8.06 (13:40) 5 (18:30) 1.6 1.6 0 0 0
12-04-2018 19.2 (16:10) 3.8 (00:00) 11.5 10.28 (11:10) 5.56 (12:30) 0 0 0 0 0
11-04-2018 11.2 (17:20) 3.4 (00:00) 7.3 10.56 (18:40) 5.56 (17:40) 6.2 3.8 0.8 1.6 0
10-04-2018 13.5 (14:20) 2 (00:00) 7.8 11.39 (14:40) 6.39 (14:40) 12.6 0 0 0.4 12.2
09-04-2018 18.2 (15:10) 3.9 (00:00) 11.1 13.89 (17:10) 8.33 (17:40) 0 0 0 0 0
08-04-2018 18.1 (16:00) 7.5 (00:00) 12.8 14.44 (16:10) 6.39 (17:50) 14.8 14.8 0 0 0
07-04-2018 13.2 (14:40) 7 (00:00) 10.1 7.5 (09:40) 3.33 (15:10) 11.6 0 0 0 11.6
06-04-2018 20.6 (14:50) 4.1 (00:00) 12.4 9.17 (16:40) 5.83 (17:00) 0 0 0 0 0
05-04-2018 21.9 (14:30) 6.2 (00:00) 14 9.17 (16:40) 6.11 (15:20) 0 0 0 0 0
04-04-2018 22.4 (15:50) 6.1 (00:00) 14.2 12.78 (12:30) 7.22 (12:30) 0 0 0 0 0
03-04-2018 23.9 (16:30) 4.1 (00:00) 14 10.56 (17:00) 6.67 (17:10) 0 0 0 0 0
02-04-2018 19.2 (14:40) 3.8 (00:00) 11.5 7.78 (15:00) 4.44 (14:50) 0 0 0 0 0
01-04-2018 19.2 (14:40) 1.4 (00:00) 10.3 8.33 (17:00) 5.28 (17:20) 0 0 0 0 0
31-03-2018 17.4 (17:00) 7.8 (00:00) 12.6 22.22 (08:00) 12.22 (07:40) 0 0 0 0 0
30-03-2018 18.8 (16:10) 4.1 (00:00) 11.4 14.44 (17:50) 8.33 (16:30) 0.2 0 0 0.2 0
29-03-2018 20 (16:50) 7.2 (00:00) 13.6 9.72 (13:40) 6.11 (13:30) 0 0 0 0 0
28-03-2018 26 (13:50) 8 (00:00) 17 9.44 (14:50) 5.83 (15:10) 0 0 0 0 0
27-03-2018 24.3 (16:20) 5.4 (00:00) 14.8 15.28 (16:40) 7.22 (11:10) 0 0 0 0 0
26-03-2018 16.6 (16:10) 5.6 (00:00) 11.1 18.89 (11:40) 10.56 (12:20) 0 0 0 0 0
25-03-2018 14.8 (12:10) 8.3 (00:00) 11.6 13.89 (05:40) 6.67 (05:40) 0 0 0 0 0
24-03-2018 14.8 (17:20) 7.7 (00:00) 11.3 23.06 (15:10) 12.78 (14:30) 0.8 0.8 0 0 0
23-03-2018 20.6 (16:30) 7 (00:00) 13.8 20 (09:20) 12.5 (09:20) 0 0 0 0 0

Gráficas

Temp. máximas Temp. mínimas Temp. medias Precipitaciones Rachas de viento máximas Velocidades máximas media en intervalos de 10 minutos

Datos horarios

Fecha y hora oficial Temperatura (ºC) Velocidad del viento (km/h) Dirección del viento Racha (km/h) Dirección de racha Precipitación (mm) Presión (hPa) Tendencia (hPa) Humedad (%)
2018-04-21 23:00:00 12.5 0 Calma 5 Oeste 0 -- -- 77
2018-04-21 22:00:00 13.7 3 Sudoeste 8 Norte 0 -- -- 72
2018-04-21 21:00:00 15.4 3 Norte 8 Sur 0 -- -- 67
2018-04-21 20:00:00 17.4 5 Sur 11 Sudoeste 0 -- -- 57
2018-04-21 19:00:00 18.4 8 Sur 14 Sur 0 -- -- 57
2018-04-21 18:00:00 19 9 Sur 19 Sudeste 0 -- -- 55
2018-04-21 17:00:00 19.9 12 Sudeste 21 Sur 0 -- -- 52
2018-04-21 16:00:00 21.1 10 Sur 21 Sudeste 0 -- -- 51
2018-04-21 15:00:00 21.4 8 Sudeste 18 Sudoeste 0 -- -- 48
2018-04-21 14:00:00 21.6 8 Sur 18 Sudeste 0 -- -- 47
2018-04-21 13:00:00 21.5 7 Sudeste 14 Sudeste 0 -- -- 48
2018-04-21 12:00:00 20.4 8 Sudeste 16 Sudeste 0 -- -- 52
2018-04-21 11:00:00 19.3 4 Sur 9 Sudoeste 0 -- -- 59
2018-04-21 10:00:00 15.7 2 Este 4 Sudeste 0 -- -- 69
2018-04-21 09:00:00 11.2 0 Calma 3 Sur 0 -- -- 87
2018-04-21 08:00:00 7.6 0 Calma 3 Norte 0 -- -- 96
2018-04-21 07:00:00 7 0 Calma 4 Oeste 0 -- -- 94
2018-04-21 06:00:00 7.3 0 Calma 4 Norte 0 -- -- 93
2018-04-21 05:00:00 7.5 0 Calma 2 Nordeste 0 -- -- 92
2018-04-21 04:00:00 7.9 0 Calma -- -- 0 -- -- 91
2018-04-21 03:00:00 8.4 0 Calma 2 Oeste 0 -- -- 89
2018-04-21 02:00:00 9.1 0 Calma 2 Oeste 0 -- -- 87
2018-04-21 01:00:00 9.8 0 Calma 3 Oeste 0 -- -- 84
2018-04-21 00:00:00 11 0 Calma 3 Noroeste 0 -- -- 81
2018-04-20 23:00:00 12.1 0 Calma 6 Sudeste 0 -- -- 76
2018-04-20 22:00:00 13.4 0 Calma 12 Noroeste 0 -- -- 71
2018-04-20 21:00:00 15.7 3 Noroeste 14 Sudeste 0 -- -- 63
2018-04-20 20:00:00 17.6 10 Sudeste 21 Sudeste 0 -- -- 57
2018-04-20 19:00:00 18.9 12 Sudeste 23 Sudeste 0 -- -- 54
2018-04-20 18:00:00 19.9 13 Sudeste 27 Sudeste 0 -- -- 50
2018-04-20 17:00:00 20.6 14 Sudeste 29 Sudeste 0 -- -- 49
2018-04-20 16:00:00 20.7 17 Sudeste 33 Sudeste 0 -- -- 49
2018-04-20 15:00:00 21.2 17 Sudeste 37 Sudeste 0 -- -- 48
2018-04-20 14:00:00 20 16 Sudeste 33 Este 0 -- -- 50
2018-04-20 13:00:00 19.8 18 Sudeste 33 Este 0 -- -- 54
2018-04-20 12:00:00 18.8 11 Este 21 Sudeste 0 -- -- 56
2018-04-20 11:00:00 18.1 10 Nordeste 19 Nordeste 0 -- -- 58
2018-04-20 10:00:00 16 9 Nordeste 15 Nordeste 0 -- -- 68
2018-04-20 09:00:00 11.8 0 Calma 3 Sur 0 -- -- 84
2018-04-20 08:00:00 8.2 0 Calma 3 Sudoeste 0 -- -- 96
2018-04-20 07:00:00 7.3 0 Calma 2 Nordeste 0 -- -- 95
2018-04-20 06:00:00 7.2 0 Calma 2 Nordeste 0 -- -- 93
2018-04-20 05:00:00 7.6 0 Calma 2 Oeste 0 -- -- 92
2018-04-20 04:00:00 8.2 2 Oeste 3 Oeste 0 -- -- 91
2018-04-20 03:00:00 8.7 2 Nordeste 5 Norte 0 -- -- 90
2018-04-20 02:00:00 9.1 0 Calma 4 Norte 0 -- -- 89
2018-04-20 01:00:00 10.1 0 Calma 5 Nordeste 0 -- -- 86
2018-04-20 00:00:00 11.1 4 Norte 5 Norte 0 -- -- 82
2018-04-19 23:00:00 12.2 0 Calma 7 Norte 0 -- -- 79
2018-04-19 22:00:00 14.2 4 Noroeste 8 Sudeste 0 -- -- 73
2018-04-19 21:00:00 16.2 3 Sudeste 16 Sudeste 0 -- -- 63
2018-04-19 20:00:00 18.1 10 Sudeste 22 Sudeste 0 -- -- 57
2018-04-19 19:00:00 19.4 14 Sudeste 26 Sudeste 0 -- -- 52
2018-04-19 18:00:00 20 12 Este 23 Este 0 -- -- 49
2018-04-19 17:00:00 20.4 9 Este 27 Sudeste 0 -- -- 48
2018-04-19 16:00:00 19.3 15 Este 24 Este 0 -- -- 53
2018-04-19 15:00:00 18.9 9 Este 26 Nordeste 0 -- -- 55
2018-04-19 14:00:00 19.5 18 Este 31 Este 0 -- -- 55
2018-04-19 13:00:00 19.4 16 Este 27 Este 0 -- -- 57
2018-04-19 12:00:00 19 6 Este 27 Nordeste 0 -- -- 57
2018-04-19 11:00:00 18.1 11 Nordeste 26 Nordeste 0 -- -- 57
2018-04-19 10:00:00 16.6 11 Nordeste 20 Nordeste 0 -- -- 64
2018-04-19 09:00:00 11.6 2 Sudoeste 4 Sudeste 0 -- -- 79
2018-04-19 08:00:00 7.5 0 Calma 3 Sudoeste 0 -- -- 93
2018-04-19 07:00:00 7.2 0 Calma 5 Noroeste 0 -- -- 90
2018-04-19 06:00:00 7.5 0 Calma 4 Sudoeste 0 -- -- 90
2018-04-19 05:00:00 8 0 Calma 4 Sudoeste 0 -- -- 89
2018-04-19 04:00:00 8.5 3 Norte 4 Norte 0 -- -- 88
2018-04-19 03:00:00 9 0 Calma 5 Sudeste 0 -- -- 86
2018-04-19 02:00:00 9.8 2 Sudoeste 4 Noroeste 0 -- -- 84
2018-04-19 01:00:00 10.6 0 Calma 4 Nordeste 0 -- -- 79
2018-04-19 00:00:00 12 2 Norte 8 Noroeste 0 -- -- 75
2018-04-18 23:00:00 13.4 3 Norte 6 Noroeste 0 -- -- 72
2018-04-18 22:00:00 15.6 6 Noroeste 13 Noroeste 0 -- -- 64
2018-04-18 21:00:00 17.7 5 Sur 16 Sur 0 -- -- 57
2018-04-18 20:00:00 20.6 5 Sudeste 22 Sur 0 -- -- 49
2018-04-18 19:00:00 22.4 12 Sudeste 21 Sudeste 0 -- -- 43
2018-04-18 18:00:00 23.6 12 Sudeste 24 Sudeste 0 -- -- 36
2018-04-18 17:00:00 23.8 14 Sudeste 27 Sudeste 0 -- -- 36
2018-04-18 16:00:00 24.8 15 Sudeste 30 Sudeste 0 -- -- 34
2018-04-18 15:00:00 24.4 14 Sudeste 27 Este 0 -- -- 35
2018-04-18 14:00:00 24.5 15 Sur 28 Sudeste 0 -- -- 36
2018-04-18 13:00:00 24 11 Sudeste 24 Sudeste 0 -- -- 38
2018-04-18 12:00:00 22.6 3 Sur 11 Sudeste 0 -- -- 41
2018-04-18 11:00:00 20.7 3 Sudeste 5 Este 0 -- -- 50
2018-04-18 10:00:00 15.7 3 Sudoeste 6 Sur 0 -- -- 65
2018-04-18 09:00:00 12.7 0 Calma 3 Sudoeste 0 -- -- 77
2018-04-18 08:00:00 7.5 0 Calma 2 Sur 0 -- -- 95
2018-04-18 07:00:00 6.9 0 Calma 3 Sudoeste 0 -- -- 93
2018-04-18 06:00:00 7.2 0 Calma 3 Oeste 0 -- -- 92
2018-04-18 05:00:00 7.5 0 Calma 2 Noroeste 0 -- -- 91
2018-04-18 04:00:00 7.9 0 Calma 0 Calma 0 -- -- 90
2018-04-18 03:00:00 8.5 0 Calma 2 Noroeste 0 -- -- 88
2018-04-18 02:00:00 9.1 0 Calma 3 Norte 0 -- -- 86
2018-04-18 01:00:00 9.7 0 Calma 2 Norte 0 -- -- 85
2018-04-18 00:00:00 10.7 0 Calma 4 Este 0 -- -- 81
2018-04-17 23:00:00 12.3 0 Calma 6 Noroeste 0 -- -- 75
2018-04-17 22:00:00 13.8 6 Noroeste 8 Noroeste 0 -- -- 69
2018-04-17 21:00:00 16.3 3 Sudoeste 12 Sur 0 -- -- 61
2018-04-17 20:00:00 18.7 7 Sudoeste 19 Sudoeste 0 -- -- 50
2018-04-17 19:00:00 20.5 12 Sur 25 Sur 0 -- -- 46
2018-04-17 18:00:00 21.9 16 Sur 24 Sur 0 -- -- 43
2018-04-17 17:00:00 23 16 Sur 29 Sur 0 -- -- 43
2018-04-17 16:00:00 23.1 15 Sur 30 Sur 0 -- -- 43
2018-04-17 15:00:00 23.4 17 Sur 26 Sur 0 -- -- 44
2018-04-17 14:00:00 23.3 13 Sudoeste 22 Sur 0 -- -- 44
2018-04-17 13:00:00 22.6 8 Sur 18 Sudeste 0 -- -- 43
2018-04-17 12:00:00 20.9 6 Oeste 14 Sur 0 -- -- 47
2018-04-17 11:00:00 18.9 4 Sur 6 Sur 0 -- -- 51
2018-04-17 10:00:00 15.4 3 Sur 5 Sur 0 -- -- 62
2018-04-17 09:00:00 10.8 2 Oeste 4 Oeste 0 -- -- 80
2018-04-17 08:00:00 6.5 0 Calma 6 Norte 0 -- -- 95
2018-04-17 07:00:00 5.8 2 Norte 4 Norte 0 -- -- 93
2018-04-17 06:00:00 6 0 Calma 4 Oeste 0 -- -- 93
2018-04-17 05:00:00 6.3 0 Calma 3 Nordeste 0 -- -- 92
2018-04-17 04:00:00 6.8 0 Calma 6 Norte 0 -- -- 91
2018-04-17 03:00:00 7.5 3 Oeste 6 Sudoeste 0 -- -- 87
2018-04-17 02:00:00 8.1 2 Oeste 6 Noroeste 0 -- -- 87
2018-04-17 01:00:00 9.2 3 Oeste 11 Noroeste 0 -- -- 83
2018-04-17 00:00:00 10.4 0 Calma 12 Noroeste 0 -- -- 79
2018-04-16 23:00:00 11.4 2 Noroeste 10 Oeste 0 -- -- 74
2018-04-16 22:00:00 13.3 2 Nordeste 12 Norte 0 -- -- 66
2018-04-16 21:00:00 15.3 8 Nordeste 22 Norte 0 -- -- 58
2018-04-16 20:00:00 15.9 8 Nordeste 17 Este 0 -- -- 56
2018-04-16 19:00:00 15.9 8 Nordeste 27 Nordeste 0 -- -- 57
2018-04-16 18:00:00 15.6 8 Nordeste 23 Norte 0 -- -- 59
2018-04-16 17:00:00 15 10 Nordeste 29 Nordeste 0.2 -- -- 60
2018-04-16 16:00:00 15.7 13 Norte 35 Nordeste 0 -- -- 57
2018-04-16 15:00:00 16.3 19 Norte 37 Nordeste 0 -- -- 57
2018-04-16 14:00:00 14.6 16 Norte 35 Norte 0 -- -- 62
2018-04-16 13:00:00 13.8 13 Nordeste 30 Norte 0 -- -- 66
2018-04-16 12:00:00 11.7 6 Noroeste 20 Noroeste 0.8 -- -- 79
2018-04-16 11:00:00 11.4 5 Este 26 Noroeste 0.4 -- -- 81
2018-04-16 10:00:00 11.6 6 Nordeste 19 Nordeste 0.6 -- -- 78
2018-04-16 09:00:00 12.2 9 Nordeste 19 Nordeste 0 -- -- 72
2018-04-16 08:00:00 11.5 3 Nordeste 21 Noroeste 0.6 -- -- 86
2018-04-16 07:00:00 11.3 4 Sudoeste 9 Norte 0 -- -- 87
2018-04-16 06:00:00 11.5 0 Calma 8 Oeste 0 -- -- 87
2018-04-16 05:00:00 11.4 3 Sudoeste 6 Oeste 0 -- -- 86
2018-04-16 04:00:00 11.6 3 Norte 6 Norte 0 -- -- 82
2018-04-16 03:00:00 11.4 4 Oeste 6 Oeste 0 -- -- 82
2018-04-16 02:00:00 11 0 Calma 3 Norte 0 -- -- 85
2018-04-16 01:00:00 10.6 0 Calma 6 Oeste 0 -- -- 84
2018-04-16 00:00:00 11 0 Calma 6 Sur 0 -- -- 80
2018-04-15 23:00:00 12.1 5 Norte 8 Norte 0 -- -- 78
2018-04-15 22:00:00 13.8 0 Calma 10 Norte 0 -- -- 73
2018-04-15 21:00:00 16.7 3 Noroeste 10 Noroeste 0 -- -- 65
2018-04-15 20:00:00 19.3 2 Oeste 5 Noroeste 0 -- -- 61
2018-04-15 19:00:00 20.4 3 Sudeste 10 Sudoeste 0 -- -- 49
2018-04-15 18:00:00 20.5 7 Sudoeste 15 Sur 0 -- -- 45
2018-04-15 17:00:00 20.9 9 Sur 14 Sur 0 -- -- 43
2018-04-15 16:00:00 21.6 7 Sur 23 Sudoeste 0 -- -- 41
2018-04-15 15:00:00 20.9 14 Sudoeste 24 Sudoeste 0 -- -- 42
2018-04-15 14:00:00 23.1 6 Sudeste 20 Sur 0 -- -- 35
2018-04-15 13:00:00 22.6 15 Sur 24 Sur 0 -- -- 37
2018-04-15 12:00:00 21.1 9 Sur 21 Sur 0 -- -- 40
2018-04-15 11:00:00 18.1 6 Sur 11 Sudeste 0 -- -- 46
2018-04-15 10:00:00 13 0 Calma 5 Sudoeste 0 -- -- 57
2018-04-15 09:00:00 9.2 0 Calma 4 Sudeste 0 -- -- 81
2018-04-15 08:00:00 4.3 3 Oeste 14 Norte 0 -- -- 92
2018-04-15 07:00:00 3.9 3 Sudeste 18 Noroeste 0 -- -- 89
2018-04-15 06:00:00 3.7 0 Calma 8 Noroeste 0 -- -- 89
2018-04-15 05:00:00 4 0 Calma 7 Noroeste 0 -- -- 89
2018-04-15 04:00:00 4.5 3 Noroeste 5 Noroeste 0 -- -- 90
2018-04-15 03:00:00 5.2 2 Sudoeste 4 Oeste 0 -- -- 90
2018-04-15 02:00:00 6.2 0 Calma 7 Este 0 -- -- 89
2018-04-15 01:00:00 6.9 2 Oeste 4 Oeste 0 -- -- 89
2018-04-15 00:00:00 8.1 3 Sur 6 Sudoeste 0 -- -- 86
2018-04-14 23:00:00 9.5 0 Calma 7 Noroeste 0 -- -- 84
2018-04-14 22:00:00 10.8 4 Oeste 5 Oeste 0 -- -- 79
2018-04-14 21:00:00 13.3 4 Este 9 Este 0 -- -- 69
2018-04-14 20:00:00 14.6 6 Este 18 Este 0 -- -- 64
2018-04-14 19:00:00 15.4 11 Este 28 Nordeste 0 -- -- 61
2018-04-14 18:00:00 16.3 17 Nordeste 35 Nordeste 0 -- -- 57
2018-04-14 17:00:00 17 17 Nordeste 32 Este 0 -- -- 57
2018-04-14 16:00:00 16.3 15 Este 32 Este 0 -- -- 59
2018-04-14 15:00:00 17.4 13 Nordeste 27 Nordeste 0 -- -- 49
2018-04-14 14:00:00 17.2 12 Norte 26 Norte 0 -- -- 52
2018-04-14 13:00:00 15.1 14 Norte 27 Norte 0 -- -- 55
2018-04-14 12:00:00 14.2 11 Nordeste 27 Nordeste 0 -- -- 57
2018-04-14 11:00:00 12.6 6 Sudeste 10 Sudeste 0 -- -- 68
2018-04-14 10:00:00 9.2 2 Nordeste 8 Oeste 0 -- -- 86
2018-04-14 09:00:00 6.6 3 Oeste 5 Oeste 0 -- -- 97
2018-04-14 08:00:00 4.8 3 Sudoeste 5 Oeste 0 -- -- 95
2018-04-14 07:00:00 4.7 2 Sudoeste 5 Oeste 0 -- -- 95
2018-04-14 06:00:00 5 2 Norte 6 Norte 0 -- -- 94
2018-04-14 05:00:00 5.6 2 Norte 4 Noroeste 0 -- -- 94
2018-04-14 04:00:00 6 0 Calma 3 Norte 0 -- -- 92
2018-04-14 03:00:00 6.6 0 Calma 4 Noroeste 0 -- -- 90
2018-04-14 02:00:00 7.6 0 Calma 9 Noroeste 0 -- -- 89
2018-04-14 01:00:00 8.9 4 Norte 8 Noroeste 0 -- -- 86
2018-04-14 00:00:00 10.6 2 Oeste 5 Oeste 0 -- -- 83
2018-04-13 23:00:00 10.9 2 Sudeste 19 Sudeste 0 -- -- 81
2018-04-13 22:00:00 11.2 0 Calma 12 Este 0 -- -- 75
2018-04-13 21:00:00 11.7 2 Este 12 Sudoeste 0 -- -- 74
2018-04-13 20:00:00 13.2 9 Sur 24 Sur 0 -- -- 64
2018-04-13 19:00:00 15 15 Sur 27 Sudoeste 0 -- -- 62
2018-04-13 18:00:00 17.6 13 Sur 25 Sudeste 0 -- -- 46
2018-04-13 17:00:00 17 17 Sur 27 Sudeste 0 -- -- 51
2018-04-13 16:00:00 16.5 15 Sudeste 23 Sudeste 0 -- -- 59
2018-04-13 15:00:00 16.8 10 Sudeste 26 Sudeste 0 -- -- 59
2018-04-13 14:00:00 17.3 12 Sur 29 Sur 0 -- -- 54
2018-04-13 13:00:00 16.5 8 Sur 19 Sur 0 -- -- 57
2018-04-13 12:00:00 14.6 7 Este 14 Sudeste 0 -- -- 60
2018-04-13 11:00:00 14 6 Sudeste 12 Este 0 -- -- 67
2018-04-13 10:00:00 10.9 2 Oeste 6 Sur 0 -- -- 86
2018-04-13 09:00:00 9 3 Sur 8 Noroeste 0 -- -- 96
2018-04-13 08:00:00 7.3 2 Noroeste 4 Oeste 0 -- -- 94
2018-04-13 07:00:00 8.2 2 Sudeste 3 Sudeste 0 -- -- 95
2018-04-13 06:00:00 8.3 0 Calma 3 Este 0.2 -- -- 95
2018-04-13 05:00:00 8.4 2 Noroeste 4 Sudoeste 0.6 -- -- 95
2018-04-13 04:00:00 8.3 3 Sudoeste 6 Sur 0 -- -- 94
2018-04-13 03:00:00 8.5 0 Calma 4 Nordeste 0.4 -- -- 92
2018-04-13 02:00:00 8.7 3 Nordeste 5 Norte 0.4 -- -- 91
2018-04-13 01:00:00 8.1 2 Oeste 4 Oeste 0 -- -- 87
2018-04-13 00:00:00 8 2 Sudoeste 5 Noroeste 0 -- -- 85
2018-04-12 23:00:00 9.7 0 Calma 8 Noroeste 0 -- -- 79
2018-04-12 22:00:00 11.2 6 Noroeste 9 Noroeste 0 -- -- 72
2018-04-12 21:00:00 13.2 4 Este 17 Sudeste 0 -- -- 65
2018-04-12 20:00:00 14.2 4 Nordeste 17 Nordeste 0 -- -- 58
2018-04-12 19:00:00 14.8 7 Este 21 Sudeste 0 -- -- 53
2018-04-12 18:00:00 15.9 11 Sudeste 27 Sudeste 0 -- -- 53
2018-04-12 17:00:00 16.5 17 Sudeste 25 Sudeste 0 -- -- 53
2018-04-12 16:00:00 18.8 10 Norte 30 Norte 0 -- -- 43
2018-04-12 15:00:00 17.6 16 Noroeste 33 Noroeste 0 -- -- 49
2018-04-12 14:00:00 16 12 Noroeste 27 Noroeste 0 -- -- 49
2018-04-12 13:00:00 15.1 14 Oeste 37 Norte 0 -- -- 51
2018-04-12 12:00:00 14.6 16 Noroeste 37 Noroeste 0 -- -- 53
2018-04-12 11:00:00 12.9 18 Noroeste 31 Noroeste 0 -- -- 58
2018-04-12 10:00:00 10.9 2 Sudeste 5 Oeste 0 -- -- 66
2018-04-12 09:00:00 6.6 0 Calma 8 Nordeste 0 -- -- 88
2018-04-12 08:00:00 4.9 4 Sudoeste 15 Sudoeste 0 -- -- 91
2018-04-12 07:00:00 4.6 2 Sur 8 Noroeste 0 -- -- 92
2018-04-12 06:00:00 4.4 4 Nordeste 8 Norte 0 -- -- 92
2018-04-12 05:00:00 3.8 4 Este 16 Noroeste 0 -- -- 92
2018-04-12 04:00:00 4.1 0 Calma 8 Sur 0 -- -- 90
2018-04-12 03:00:00 5.1 4 Nordeste 12 Sudeste 0 -- -- 87
2018-04-12 02:00:00 5.5 8 Oeste 13 Oeste 0 -- -- 87
2018-04-12 01:00:00 6.4 3 Oeste 16 Nordeste 0 -- -- 84
2018-04-12 00:00:00 6.9 8 Este 12 Este 0 -- -- 82
2018-04-11 23:00:00 7.6 5 Este 12 Este 0 -- -- 80
2018-04-11 22:00:00 8.5 5 Este 21 Noroeste 0 -- -- 72
2018-04-11 21:00:00 8.9 5 Norte 31 Norte 0 -- -- 70
2018-04-11 20:00:00 9.7 3 Noroeste 22 Norte 0 -- -- 65
2018-04-11 19:00:00 10.3 7 Noroeste 38 Noroeste 0 -- -- 62
2018-04-11 18:00:00 10.9 19 Noroeste 37 Noroeste 0 -- -- 58
2018-04-11 17:00:00 10.9 16 Norte 33 Norte 0 -- -- 59
2018-04-11 16:00:00 9.7 3 Sur 10 Sur 0 -- -- 73
2018-04-11 15:00:00 8 3 Este 11 Este 0.2 -- -- 79
2018-04-11 14:00:00 7.8 5 Nordeste 14 Norte 0.6 -- -- 79
2018-04-11 13:00:00 8.8 4 Este 12 Sur 0.8 -- -- 79
2018-04-11 12:00:00 8.2 6 Sudeste 18 Sudeste 0.6 -- -- 79
2018-04-11 11:00:00 9.3 4 Sudeste 8 Sudeste 0.2 -- -- 74
2018-04-11 10:00:00 7.3 0 Calma 6 Sur 0 -- -- 95
2018-04-11 09:00:00 5.2 3 Sudeste 8 Nordeste 0 -- -- 97
2018-04-11 08:00:00 3.6 0 Calma 6 Sudoeste 0 -- -- 97
2018-04-11 07:00:00 4 5 Oeste 8 Sudoeste 0 -- -- 97
2018-04-11 06:00:00 4.3 5 Este 10 Este 0 -- -- 96
2018-04-11 05:00:00 4.4 0 Calma 10 Oeste 0 -- -- 94
2018-04-11 04:00:00 5.4 4 Sudoeste 12 Norte 0 -- -- 93
2018-04-11 03:00:00 6.8 4 Norte 25 Sudoeste 0 -- -- 92
2018-04-11 02:00:00 7.6 12 Nordeste 27 Nordeste 0.6 -- -- 89
2018-04-11 01:00:00 8.2 8 Noroeste 21 Noroeste 3.2 -- -- 93
2018-04-11 00:00:00 8.3 3 Noroeste 17 Oeste 2.8 -- -- 96
2018-04-10 23:00:00 8.1 7 Noroeste 15 Sudeste 5 -- -- 95
2018-04-10 22:00:00 8.1 7 Este 17 Sudeste 2.6 -- -- 95
2018-04-10 21:00:00 8.2 4 Sur 16 Sur 0.8 -- -- 94
2018-04-10 20:00:00 8.5 9 Sur 19 Sur 0.6 -- -- 93
2018-04-10 19:00:00 8.6 7 Sudeste 12 Sudeste 0.4 -- -- 90
2018-04-10 18:00:00 9 5 Sudoeste 26 Sudoeste 0.4 -- -- 84
2018-04-10 17:00:00 9.8 13 Sudoeste 36 Sudoeste 0 -- -- 74
2018-04-10 16:00:00 10.8 14 Sudoeste 39 Oeste 0 -- -- 70
2018-04-10 15:00:00 11.6 16 Sudoeste 41 Oeste 0 -- -- 65
2018-04-10 14:00:00 13 15 Sudoeste 29 Sudoeste 0 -- -- 55
2018-04-10 13:00:00 12.1 17 Sudoeste 37 Sudoeste 0 -- -- 57
2018-04-10 12:00:00 12.4 21 Sudoeste 37 Sudoeste 0 -- -- 56
2018-04-10 11:00:00 12.3 18 Sudoeste 29 Sudoeste 0 -- -- 56
2018-04-10 10:00:00 10 2 Nordeste 8 Este 0 -- -- 64
2018-04-10 09:00:00 6.7 0 Calma 5 Sur 0 -- -- 73
2018-04-10 08:00:00 2.3 2 Norte 6 Oeste 0 -- -- 89
2018-04-10 07:00:00 2.3 2 Norte 8 Sudeste 0 -- -- 86
2018-04-10 06:00:00 3.4 0 Calma 15 Norte 0 -- -- 78
2018-04-10 05:00:00 4.3 3 Este 14 Sudoeste 0 -- -- 76
2018-04-10 04:00:00 3.9 5 Sudoeste 9 Sudoeste 0 -- -- 79
2018-04-10 03:00:00 5.9 5 Nordeste 12 Norte 0 -- -- 70
2018-04-10 02:00:00 6.6 4 Norte 13 Oeste 0 -- -- 65
2018-04-10 01:00:00 6.6 9 Noroeste 15 Noroeste 0 -- -- 61
2018-04-10 00:00:00 6.6 7 Oeste 13 Noroeste 0 -- -- 64
2018-04-09 23:00:00 8.8 3 Sur 19 Nordeste 0 -- -- 56
2018-04-09 22:00:00 9.4 9 Nordeste 18 Noroeste 0 -- -- 51
2018-04-09 21:00:00 10.4 17 Noroeste 28 Oeste 0 -- -- 47
2018-04-09 20:00:00 12.1 17 Noroeste 45 Oeste 0 -- -- 43
2018-04-09 19:00:00 14.3 21 Oeste 41 Noroeste 0 -- -- 39
2018-04-09 18:00:00 14.9 22 Noroeste 50 Oeste 0 -- -- 39
2018-04-09 17:00:00 16.4 23 Oeste 46 Oeste 0 -- -- 32
2018-04-09 16:00:00 18 19 Sudoeste 43 Sudoeste 0 -- -- 29
2018-04-09 15:00:00 18 24 Sudoeste 42 Sudoeste 0 -- -- 27
2018-04-09 14:00:00 17.5 20 Sudoeste 44 Oeste 0 -- -- 32
2018-04-09 13:00:00 17.3 20 Sudoeste 40 Sudoeste 0 -- -- 32
2018-04-09 12:00:00 16.5 17 Sudoeste 32 Sudoeste 0 -- -- 38
2018-04-09 11:00:00 15.2 16 Sudoeste 25 Sudoeste 0 -- -- 46
2018-04-09 10:00:00 11.2 3 Este 6 Sudeste 0 -- -- 68
2018-04-09 09:00:00 6.8 3 Este 10 Oeste 0 -- -- 87
2018-04-09 08:00:00 5.1 4 Sudoeste 11 Este 0 -- -- 94
2018-04-09 07:00:00 4.2 4 Nordeste 10 Este 0 -- -- 92
2018-04-09 06:00:00 3.9 3 Sudoeste 5 Sur 0 -- -- 93
2018-04-09 05:00:00 4.3 4 Sudoeste 7 Sudoeste 0 -- -- 92
2018-04-09 04:00:00 4.8 3 Oeste 9 Oeste 0 -- -- 92
2018-04-09 03:00:00 5.2 2 Sur 8 Oeste 0 -- -- 90
2018-04-09 02:00:00 5.8 2 Sur 10 Este 0 -- -- 88
2018-04-09 01:00:00 6.8 5 Nordeste 13 Noroeste 0 -- -- 84
2018-04-09 00:00:00 7.5 2 Nordeste 7 Norte 0 -- -- 83
2018-04-08 23:00:00 8.6 4 Noroeste 9 Noroeste 0 -- -- 77
2018-04-08 22:00:00 10.4 2 Oeste 7 Sudoeste 0 -- -- 76
2018-04-08 21:00:00 12.4 3 Sudoeste 11 Sudeste 0 -- -- 70
2018-04-08 20:00:00 14.8 5 Este 20 Sudeste 0 -- -- 62
2018-04-08 19:00:00 16.3 12 Sudeste 22 Sudeste 0 -- -- 55
2018-04-08 18:00:00 15.8 14 Noroeste 43 Norte 0 -- -- 50
2018-04-08 17:00:00 18.1 15 Noroeste 52 Noroeste 0 -- -- 41
2018-04-08 16:00:00 18.1 18 Noroeste 39 Noroeste 0 -- -- 46
2018-04-08 15:00:00 15.9 13 Norte 38 Noroeste 0 -- -- 48
2018-04-08 14:00:00 15.6 16 Norte 35 Norte 0 -- -- 47
2018-04-08 13:00:00 14.9 16 Noroeste 36 Noroeste 0 -- -- 50
2018-04-08 12:00:00 15 15 Noroeste 35 Norte 0 -- -- 54
2018-04-08 11:00:00 15.2 18 Noroeste 33 Noroeste 0 -- -- 54
2018-04-08 10:00:00 12.1 4 Nordeste 18 Nordeste 0 -- -- 63
2018-04-08 09:00:00 10.7 4 Este 21 Noroeste 0 -- -- 63
2018-04-08 08:00:00 9.1 6 Sudoeste 22 Noroeste 0 -- -- 72
2018-04-08 07:00:00 10.1 10 Nordeste 27 Nordeste 0 -- -- 64
2018-04-08 06:00:00 9.8 4 Sudeste 22 Norte 0 -- -- 75
2018-04-08 05:00:00 10.1 10 Norte 25 Noroeste 0 -- -- 69
2018-04-08 04:00:00 9.9 4 Sudeste 22 Este 0 -- -- 78
2018-04-08 03:00:00 9.7 7 Este 15 Este 0 -- -- 85
2018-04-08 02:00:00 9.8 5 Nordeste 14 Noroeste 1 -- -- 89
2018-04-08 01:00:00 10.2 3 Sur 30 Noroeste 13.8 -- -- 92
2018-04-08 00:00:00 11.2 4 Sudoeste 23 Oeste 9.4 -- -- 94
2018-04-07 23:00:00 12 2 Norte 6 Norte 0.4 -- -- 95
2018-04-07 22:00:00 12 3 Oeste 5 Sur 1 -- -- 95
2018-04-07 21:00:00 12.2 2 Sudeste 4 Sudeste 0.4 -- -- 94
2018-04-07 20:00:00 12.6 0 Calma 9 Nordeste 0.4 -- -- 90
2018-04-07 19:00:00 12.7 3 Nordeste 12 Nordeste 0 -- -- 87
2018-04-07 18:00:00 12.8 4 Nordeste 13 Nordeste 0 -- -- 86
2018-04-07 17:00:00 12.7 4 Nordeste 15 Nordeste 0 -- -- 89
2018-04-07 16:00:00 12.7 6 Nordeste 22 Este 0 -- -- 88
2018-04-07 15:00:00 13.2 9 Nordeste 19 Este 0 -- -- 84
2018-04-07 14:00:00 12.9 10 Nordeste 19 Nordeste 0 -- -- 84
2018-04-07 13:00:00 12.6 7 Nordeste 23 Nordeste 0 -- -- 86
2018-04-07 12:00:00 12 9 Nordeste 20 Nordeste 0 -- -- 87
2018-04-07 11:00:00 11.6 9 Nordeste 19 Nordeste 0 -- -- 86
2018-04-07 10:00:00 11.5 9 Nordeste 27 Nordeste 0 -- -- 84
2018-04-07 09:00:00 11.4 6 Nordeste 19 Nordeste 0 -- -- 82
2018-04-07 08:00:00 10.9 10 Nordeste 19 Norte 0 -- -- 81
2018-04-07 07:00:00 8.8 0 Calma 11 Norte 0 -- -- 80
2018-04-07 06:00:00 7.5 0 Calma 7 Nordeste 0 -- -- 82
2018-04-07 05:00:00 7.9 4 Norte 9 Norte 0 -- -- 82
2018-04-07 04:00:00 7.1 3 Sudoeste 7 Norte 0 -- -- 82
2018-04-07 03:00:00 7.8 0 Calma 4 Noroeste 0 -- -- 81
2018-04-07 02:00:00 8.4 0 Calma 4 Norte 0 -- -- 80
2018-04-07 01:00:00 9 0 Calma 3 Norte 0 -- -- 80
2018-04-07 00:00:00 9.9 2 Sudoeste 10 Oeste 0 -- -- 78
2018-04-06 23:00:00 10.9 3 Norte 10 Oeste 0 -- -- 76
2018-04-06 22:00:00 11.7 5 Noroeste 9 Oeste 0 -- -- 74
2018-04-06 21:00:00 12.4 2 Oeste 12 Sudeste 0 -- -- 70
2018-04-06 20:00:00 13.7 6 Sudeste 17 Sudeste 0 -- -- 67
2018-04-06 19:00:00 14.4 12 Sudeste 21 Sudeste 0 -- -- 67
2018-04-06 18:00:00 14.8 9 Sudeste 26 Sudeste 0 -- -- 67
2018-04-06 17:00:00 17.4 21 Sudeste 33 Sudeste 0 -- -- 50
2018-04-06 16:00:00 18.6 19 Sudeste 31 Sudeste 0 -- -- 46
2018-04-06 15:00:00 20.2 16 Sudeste 26 Sudeste 0 -- -- 44
2018-04-06 14:00:00 19.6 9 Sudeste 25 Sur 0 -- -- 37
2018-04-06 13:00:00 18.9 11 Sur 22 Sudeste 0 -- -- 37
2018-04-06 12:00:00 18.3 14 Sudeste 22 Sudeste 0 -- -- 42
2018-04-06 11:00:00 14.6 0 Calma 4 Este 0 -- -- 53
2018-04-06 10:00:00 11.6 0 Calma 4 Nordeste 0 -- -- 60
2018-04-06 09:00:00 7 0 Calma 4 Oeste 0 -- -- 78
2018-04-06 08:00:00 4.3 0 Calma 5 Oeste 0 -- -- 84
2018-04-06 07:00:00 4.4 0 Calma 7 Nordeste 0 -- -- 82
2018-04-06 06:00:00 4.2 0 Calma 5 Oeste 0 -- -- 85
2018-04-06 05:00:00 4.4 0 Calma 2 Sudeste 0 -- -- 85
2018-04-06 04:00:00 4.7 0 Calma 3 Norte 0 -- -- 83
2018-04-06 03:00:00 5.2 0 Calma 3 Oeste 0 -- -- 82
2018-04-06 02:00:00 5.8 0 Calma 6 Norte 0 -- -- 79
2018-04-06 01:00:00 6.8 5 Norte 7 Norte 0 -- -- 78
2018-04-06 00:00:00 7.9 0 Calma 7 Noroeste 0 -- -- 71
2018-04-05 23:00:00 9.3 3 Norte 8 Noroeste 0 -- -- 68
2018-04-05 22:00:00 11.3 2 Sur 9 Sudoeste 0 -- -- 62
2018-04-05 21:00:00 12.8 5 Sudoeste 18 Sur 0 -- -- 60
2018-04-05 20:00:00 14.7 10 Sur 23 Sudoeste 0 -- -- 54
2018-04-05 19:00:00 17 14 Sur 27 Sur 0 -- -- 46
2018-04-05 18:00:00 18.5 17 Sur 31 Sur 0 -- -- 42
2018-04-05 17:00:00 20.2 18 Sur 33 Sur 0 -- -- 37
2018-04-05 16:00:00 20.9 21 Sur 32 Sur 0 -- -- 36
2018-04-05 15:00:00 21.7 18 Sur 30 Sur 0 -- -- 33
2018-04-05 14:00:00 21.7 17 Sur 29 Sur 0 -- -- 33
2018-04-05 13:00:00 21 18 Sur 31 Sur 0 -- -- 33
2018-04-05 12:00:00 19.6 18 Sudoeste 27 Sudoeste 0 -- -- 34
2018-04-05 11:00:00 18.7 6 Sur 14 Sur 0 -- -- 39
2018-04-05 10:00:00 14.7 0 Calma 5 Oeste 0 -- -- 48
2018-04-05 09:00:00 10.5 0 Calma 6 Norte 0 -- -- 59
2018-04-05 08:00:00 6.2 0 Calma 8 Noroeste 0 -- -- 70
2018-04-05 07:00:00 9.1 3 Este 22 Noroeste 0 -- -- 61
2018-04-05 06:00:00 10 7 Norte 17 Noroeste 0 -- -- 59
2018-04-05 05:00:00 11.2 9 Noroeste 19 Norte 0 -- -- 55
2018-04-05 04:00:00 11.7 11 Noroeste 20 Noroeste 0 -- -- 53
2018-04-05 03:00:00 9.4 3 Noroeste 9 Oeste 0 -- -- 62
2018-04-05 02:00:00 9.2 4 Oeste 10 Sudeste 0 -- -- 61
2018-04-05 01:00:00 10.3 3 Oeste 12 Este 0 -- -- 58
2018-04-05 00:00:00 13 6 Noroeste 32 Norte 0 -- -- 50
2018-04-04 23:00:00 13.1 7 Noroeste 23 Norte 0 -- -- 50
2018-04-04 22:00:00 13.2 9 Noroeste 15 Noroeste 0 -- -- 46
2018-04-04 21:00:00 15.7 10 Noroeste 19 Noroeste 0 -- -- 39
2018-04-04 20:00:00 18.2 14 Noroeste 38 Noroeste 0 -- -- 35
2018-04-04 19:00:00 19.7 21 Oeste 39 Oeste 0 -- -- 31
2018-04-04 18:00:00 21.1 21 Noroeste 39 Noroeste 0 -- -- 29
2018-04-04 17:00:00 21.7 17 Noroeste 40 Oeste 0 -- -- 28
2018-04-04 16:00:00 22.3 24 Oeste 42 Noroeste 0 -- -- 25
2018-04-04 15:00:00 21.4 24 Oeste 41 Oeste 0 -- -- 28
2018-04-04 14:00:00 21.4 20 Oeste 38 Noroeste 0 -- -- 26
2018-04-04 13:00:00 21 14 Noroeste 46 Noroeste 0 -- -- 29
2018-04-04 12:00:00 19.5 23 Noroeste 39 Noroeste 0 -- -- 29
2018-04-04 11:00:00 18.1 6 Noroeste 32 Este 0 -- -- 34
2018-04-04 10:00:00 16.5 11 Sudeste 21 Sudeste 0 -- -- 40
2018-04-04 09:00:00 13 8 Este 28 Sudoeste 0 -- -- 51
2018-04-04 08:00:00 9.1 4 Este 19 Oeste 0 -- -- 64
2018-04-04 07:00:00 7.6 4 Sudeste 12 Oeste 0 -- -- 71
2018-04-04 06:00:00 6.1 2 Noroeste 9 Oeste 0 -- -- 77
2018-04-04 05:00:00 6.6 3 Nordeste 8 Oeste 0 -- -- 76
2018-04-04 04:00:00 6.6 5 Oeste 10 Noroeste 0 -- -- 74
2018-04-04 03:00:00 7.1 4 Oeste 9 Sudoeste 0 -- -- 73
2018-04-04 02:00:00 8.1 6 Norte 11 Noroeste 0 -- -- 69
2018-04-04 01:00:00 8.3 0 Calma 7 Norte 0 -- -- 69
2018-04-04 00:00:00 9.1 3 Noroeste 6 Noroeste 0 -- -- 64
2018-04-03 23:00:00 10.4 0 Calma 6 Norte 0 -- -- 64
2018-04-03 22:00:00 12.2 2 Nordeste 6 Norte 0 -- -- 60
2018-04-03 21:00:00 15.3 0 Calma 16 Sudoeste 0 -- -- 57
2018-04-03 20:00:00 18.4 10 Sur 23 Sur 0 -- -- 50
2018-04-03 19:00:00 20.1 14 Sudoeste 30 Sudoeste 0 -- -- 47
2018-04-03 18:00:00 21.1 21 Sur 37 Sur 0 -- -- 45
2018-04-03 17:00:00 22.7 21 Sur 38 Sur 0 -- -- 43
2018-04-03 16:00:00 22.8 13 Sudeste 30 Sudeste 0 -- -- 41
2018-04-03 15:00:00 22.3 10 Sur 31 Sudeste 0 -- -- 42
2018-04-03 14:00:00 19.6 13 Sudeste 28 Sudeste 0 -- -- 49
2018-04-03 13:00:00 19.3 12 Sudeste 22 Sudeste 0 -- -- 49
2018-04-03 12:00:00 15.5 9 Sudeste 13 Este 0 -- -- 59
2018-04-03 11:00:00 13.6 4 Nordeste 9 Este 0 -- -- 63
2018-04-03 10:00:00 10.5 3 Sur 8 Sur 0 -- -- 74
2018-04-03 09:00:00 6.1 0 Calma 6 Oeste 0 -- -- 89
2018-04-03 08:00:00 4.3 0 Calma 5 Norte 0 -- -- 90
2018-04-03 07:00:00 4.2 0 Calma 3 Noroeste 0 -- -- 90
2018-04-03 06:00:00 4.6 0 Calma 5 Oeste 0 -- -- 87
2018-04-03 05:00:00 5.3 2 Oeste 6 Norte 0 -- -- 85
2018-04-03 04:00:00 5.8 3 Oeste 4 Oeste 0 -- -- 84
2018-04-03 03:00:00 6.5 0 Calma 4 Nordeste 0 -- -- 82
2018-04-03 02:00:00 7.3 0 Calma 5 Oeste 0 -- -- 79
2018-04-03 01:00:00 7.7 2 Oeste 4 Norte 0 -- -- 77
2018-04-03 00:00:00 8.6 0 Calma 4 Oeste 0 -- -- 74
2018-04-02 23:00:00 9.6 0 Calma 7 Noroeste 0 -- -- 70
2018-04-02 22:00:00 10.4 5 Norte 9 Noroeste 0 -- -- 69
2018-04-02 21:00:00 12.3 2 Oeste 12 Sur 0 -- -- 64
2018-04-02 20:00:00 14.2 5 Sur 15 Sudeste 0 -- -- 59
2018-04-02 19:00:00 16 6 Sur 19 Sur 0 -- -- 54
2018-04-02 18:00:00 16.8 12 Sudeste 23 Sudeste 0 -- -- 49
2018-04-02 17:00:00 18.2 12 Sudeste 24 Sudeste 0 -- -- 43
2018-04-02 16:00:00 18.8 11 Sudeste 23 Sudeste 0 -- -- 38
2018-04-02 15:00:00 18.4 14 Sudeste 28 Sudeste 0 -- -- 39
2018-04-02 14:00:00 18.6 12 Sudeste 22 Sudeste 0 -- -- 28
2018-04-02 13:00:00 17.2 9 Sudeste 19 Sudeste 0 -- -- 29
2018-04-02 12:00:00 15.9 8 Sudeste 15 Sudeste 0 -- -- 33
2018-04-02 11:00:00 11.7 2 Este 5 Oeste 0 -- -- 46
2018-04-02 10:00:00 7.6 2 Sur 3 Sur 0 -- -- 58
2018-04-02 09:00:00 4.7 0 Calma 4 Este 0 -- -- 70
2018-04-02 08:00:00 3.8 0 Calma 2 Noroeste 0 -- -- 72
2018-04-02 07:00:00 3.9 0 Calma 3 Oeste 0 -- -- 70
2018-04-02 06:00:00 4.4 0 Calma 2 Sudeste 0 -- -- 70
2018-04-02 05:00:00 5.1 0 Calma 3 Norte 0 -- -- 69
2018-04-02 04:00:00 5.7 0 Calma 4 Noroeste 0 -- -- 67
2018-04-02 03:00:00 6.1 0 Calma 6 Norte 0 -- -- 66
2018-04-02 02:00:00 6.5 2 Noroeste 4 Oeste 0 -- -- 64
2018-04-02 01:00:00 7.4 3 Norte 6 Norte 0 -- -- 59
2018-04-02 00:00:00 7.7 0 Calma 4 Norte 0 -- -- 59
2018-04-01 23:00:00 8.4 0 Calma 2 Este 0 -- -- 57
2018-04-01 22:00:00 9.8 2 Oeste 6 Noroeste 0 -- -- 52
2018-04-01 21:00:00 11.6 0 Calma 14 Sudoeste 0 -- -- 49
2018-04-01 20:00:00 13 9 Sudoeste 22 Sur 0 -- -- 44
2018-04-01 19:00:00 14.4 15 Sur 27 Sudoeste 0 -- -- 46
2018-04-01 18:00:00 16.2 18 Sur 29 Sudoeste 0 -- -- 40
2018-04-01 17:00:00 18.5 17 Sur 30 Sur 0 -- -- 38
2018-04-01 16:00:00 18.7 15 Sur 27 Sur 0 -- -- 35
2018-04-01 15:00:00 19 18 Sur 28 Sur 0 -- -- 34
2018-04-01 14:00:00 18.6 16 Sudeste 30 Sudeste 0 -- -- 31
2018-04-01 13:00:00 17.5 9 Sudeste 23 Sudeste 0 -- -- 35
2018-04-01 12:00:00 16.4 6 Sudeste 11 Sudeste 0 -- -- 33
2018-04-01 11:00:00 14 3 Sudeste 6 Sur 0 -- -- 42
2018-04-01 10:00:00 10.6 0 Calma 5 Sudeste 0 -- -- 46
2018-04-01 09:00:00 6.4 2 Este 4 Sudeste 0 -- -- 56
2018-04-01 08:00:00 2.1 0 Calma 6 Sudoeste 0 -- -- 67
2018-04-01 07:00:00 1.9 2 Oeste 8 Sur 0 -- -- 65
2018-04-01 06:00:00 1.5 3 Este 6 Sudeste 0 -- -- 65
2018-04-01 05:00:00 1.5 2 Sudoeste 6 Sudoeste 0 -- -- 63
2018-04-01 04:00:00 2.1 2 Oeste 9 Noroeste 0 -- -- 61
2018-04-01 03:00:00 2.8 3 Noroeste 4 Oeste 0 -- -- 57
2018-04-01 02:00:00 4.1 2 Sudeste 10 Noroeste 0 -- -- 52
2018-04-01 01:00:00 5.3 2 Sudoeste 8 Oeste 0 -- -- 47
2018-04-01 00:00:00 7.8 5 Norte 15 Noroeste 0 -- -- 40
2018-03-31 23:00:00 9.4 9 Noroeste 22 Noroeste 0 -- -- 36
2018-03-31 22:00:00 11.1 12 Oeste 21 Noroeste 0 -- -- 31
2018-03-31 21:00:00 12.7 13 Noroeste 25 Noroeste 0 -- -- 27
2018-03-31 20:00:00 14.6 19 Noroeste 49 Norte 0 -- -- 23
2018-03-31 19:00:00 16.1 24 Noroeste 55 Noroeste 0 -- -- 20
2018-03-31 18:00:00 16.8 25 Norte 53 Norte 0 -- -- 19
2018-03-31 17:00:00 17.4 28 Noroeste 54 Noroeste 0 -- -- 21
2018-03-31 16:00:00 16.8 35 Noroeste 58 Norte 0 -- -- 22
2018-03-31 15:00:00 16.6 30 Noroeste 63 Noroeste 0 -- -- 24
2018-03-31 14:00:00 15.5 40 Noroeste 72 Noroeste 0 -- -- 24
2018-03-31 13:00:00 14.7 36 Noroeste 64 Noroeste 0 -- -- 28
2018-03-31 12:00:00 13.5 36 Noroeste 69 Noroeste 0 -- -- 32
2018-03-31 11:00:00 12.6 35 Noroeste 71 Noroeste 0 -- -- 35
2018-03-31 10:00:00 11.2 43 Noroeste 73 Noroeste 0 -- -- 39
2018-03-31 09:00:00 10.1 43 Noroeste 75 Noroeste 0 -- -- 41
2018-03-31 08:00:00 9.2 41 Noroeste 80 Noroeste 0 -- -- 41
2018-03-31 07:00:00 8.9 39 Noroeste 75 Noroeste 0 -- -- 42
2018-03-31 06:00:00 8.6 36 Noroeste 60 Oeste 0 -- -- 42
2018-03-31 05:00:00 8.5 27 Noroeste 60 Oeste 0 -- -- 41
2018-03-31 04:00:00 9.3 41 Noroeste 72 Oeste 0 -- -- 40
2018-03-31 03:00:00 9.8 37 Oeste 61 Noroeste 0 -- -- 50
2018-03-31 02:00:00 9.7 17 Oeste 35 Oeste 0 -- -- 48
2018-03-31 01:00:00 10.1 8 Sur 32 Sudoeste 0 -- -- 42
2018-03-31 00:00:00 9 0 Calma 20 Sudoeste 0 -- -- 40
2018-03-30 23:00:00 8.2 2 Noroeste 17 Oeste 0 -- -- 44
2018-03-30 22:00:00 9.9 11 Oeste 26 Oeste 0 -- -- 40
2018-03-30 21:00:00 11.5 15 Oeste 26 Oeste 0 -- -- 30
2018-03-30 20:00:00 14 13 Oeste 40 Oeste 0 -- -- 30
2018-03-30 19:00:00 15.5 25 Oeste 46 Oeste 0 -- -- 28
2018-03-30 18:00:00 17.5 21 Oeste 52 Noroeste 0 -- -- 27
2018-03-30 17:00:00 18.4 21 Oeste 46 Oeste 0 -- -- 27
2018-03-30 16:00:00 18.7 24 Sudoeste 43 Oeste 0 -- -- 29
2018-03-30 15:00:00 16.7 15 Oeste 41 Noroeste 0.2 -- -- 41
2018-03-30 14:00:00 17.1 28 Oeste 50 Oeste 0 -- -- 40
2018-03-30 13:00:00 17.3 17 Sudoeste 31 Oeste 0 -- -- 34
2018-03-30 12:00:00 17.7 19 Oeste 30 Oeste 0 -- -- 32
2018-03-30 11:00:00 15.5 5 Este 24 Sur 0 -- -- 39
2018-03-30 10:00:00 13.1 10 Sudeste 17 Sudeste 0 -- -- 46
2018-03-30 09:00:00 7.7 3 Noroeste 9 Sudeste 0 -- -- 66
2018-03-30 08:00:00 7 2 Noroeste 11 Sudoeste 0 -- -- 63
2018-03-30 07:00:00 7.2 3 Sur 19 Norte 0 -- -- 67
2018-03-30 06:00:00 4.2 3 Sudoeste 14 Norte 0 -- -- 88
2018-03-30 05:00:00 4.8 5 Nordeste 18 Noroeste 0 -- -- 90
2018-03-30 04:00:00 4.4 3 Sudoeste 12 Sudoeste 0 -- -- 93
2018-03-30 03:00:00 4.3 2 Sudeste 8 Norte 0 -- -- 90
2018-03-30 02:00:00 5.2 3 Noroeste 7 Noroeste 0 -- -- 91
2018-03-30 01:00:00 6 0 Calma 8 Noroeste 0 -- -- 84
2018-03-30 00:00:00 7.3 3 Norte 13 Noroeste 0 -- -- 86
2018-03-29 23:00:00 8.6 0 Calma 10 Norte 0 -- -- 79
2018-03-29 22:00:00 10.5 3 Norte 6 Este 0 -- -- 75
2018-03-29 21:00:00 12.7 3 Nordeste 16 Este 0 -- -- 69
2018-03-29 20:00:00 15.2 10 Sudeste 20 Sur 0 -- -- 60
2018-03-29 19:00:00 17.8 13 Sur 24 Sur 0 -- -- 49
2018-03-29 18:00:00 19 16 Sur 27 Sur 0 -- -- 47
2018-03-29 17:00:00 20 14 Sur 25 Sur 0 -- -- 46
2018-03-29 16:00:00 19.2 17 Sudoeste 32 Sur 0 -- -- 47
2018-03-29 15:00:00 19.3 19 Sur 33 Sur 0 -- -- 47
2018-03-29 14:00:00 19 21 Sur 35 Sur 0 -- -- 50
2018-03-29 13:00:00 19.6 19 Sur 30 Sur 0 -- -- 51
2018-03-29 12:00:00 18.8 14 Sudeste 20 Sudeste 0 -- -- 43
2018-03-29 11:00:00 17.4 10 Sur 14 Sur 0 -- -- 43
2018-03-29 10:00:00 12.8 4 Sudoeste 8 Sudoeste 0 -- -- 56
2018-03-29 09:00:00 9.8 4 Sudoeste 9 Norte 0 -- -- 63
2018-03-29 08:00:00 10.7 2 Noroeste 12 Nordeste 0 -- -- 57
2018-03-29 07:00:00 13.1 6 Noroeste 19 Norte 0 -- -- 49
2018-03-29 06:00:00 14 13 Norte 19 Norte 0 -- -- 45
2018-03-29 05:00:00 13.8 10 Norte 19 Noroeste 0 -- -- 42
2018-03-29 04:00:00 13.3 0 Calma 14 Noroeste 0 -- -- 45
2018-03-29 03:00:00 10.5 0 Calma 7 Sudoeste 0 -- -- 52
2018-03-29 02:00:00 10 3 Sudeste 10 Noroeste 0 -- -- 57
2018-03-29 01:00:00 8.4 2 Norte 8 Norte 0 -- -- 65
2018-03-29 00:00:00 9.7 0 Calma 5 Noroeste 0 -- -- 65
2018-03-28 23:00:00 11.4 0 Calma 8 Noroeste 0 -- -- 60
2018-03-28 22:00:00 13.1 4 Noroeste 12 Noroeste 0 -- -- 56
2018-03-28 21:00:00 16.1 9 Noroeste 13 Noroeste 0 -- -- 48
2018-03-28 20:00:00 19.5 4 Sudoeste 21 Sur 0 -- -- 41
2018-03-28 19:00:00 21.5 16 Sur 25 Sur 0 -- -- 36
2018-03-28 18:00:00 24 15 Sur 28 Sur 0 -- -- 31
2018-03-28 17:00:00 25 18 Sur 33 Sur 0 -- -- 28
2018-03-28 16:00:00 25.3 18 Sur 34 Sur 0 -- -- 27
2018-03-28 15:00:00 25.5 20 Sur 34 Sur 0 -- -- 27
2018-03-28 14:00:00 26 14 Sur 28 Sudeste 0 -- -- 27
2018-03-28 13:00:00 25.1 11 Sur 23 Sur 0 -- -- 26
2018-03-28 12:00:00 23.7 14 Sur 23 Sur 0 -- -- 28
2018-03-28 11:00:00 20.9 4 Sudeste 8 Sudeste 0 -- -- 37
2018-03-28 10:00:00 15.8 0 Calma 6 Sudeste 0 -- -- 47
2018-03-28 09:00:00 10.6 3 Oeste 12 Noroeste 0 -- -- 64
2018-03-28 08:00:00 8.6 3 Nordeste 11 Noroeste 0 -- -- 65
2018-03-28 07:00:00 11 5 Norte 21 Noroeste 0 -- -- 57
2018-03-28 06:00:00 13.8 9 Noroeste 21 Noroeste 0 -- -- 50
2018-03-28 05:00:00 13.5 3 Sudeste 31 Oeste 0 -- -- 51
2018-03-28 04:00:00 14.4 10 Noroeste 21 Noroeste 0 -- -- 50
2018-03-28 03:00:00 11.3 9 Noroeste 15 Norte 0 -- -- 62
2018-03-28 02:00:00 10 2 Sur 15 Noroeste 0 -- -- 68
2018-03-28 01:00:00 10.5 3 Noroeste 10 Norte 0 -- -- 65
2018-03-28 00:00:00 11.2 2 Oeste 10 Norte 0 -- -- 62
2018-03-27 23:00:00 12.6 4 Oeste 12 Noroeste 0 -- -- 60
2018-03-27 22:00:00 13.9 4 Norte 13 Norte 0 -- -- 56
2018-03-27 21:00:00 15.7 6 Nordeste 11 Nordeste 0 -- -- 52
2018-03-27 20:00:00 19.8 8 Este 28 Noroeste 0 -- -- 41
2018-03-27 19:00:00 22.9 16 Norte 33 Norte 0 -- -- 33
2018-03-27 18:00:00 22.9 9 Oeste 30 Noroeste 0 -- -- 33
2018-03-27 17:00:00 23.2 9 Este 55 Noroeste 0 -- -- 32
2018-03-27 16:00:00 24.1 15 Noroeste 40 Norte 0 -- -- 31
2018-03-27 15:00:00 23.1 8 Norte 22 Norte 0 -- -- 30
2018-03-27 14:00:00 22.3 5 Oeste 17 Oeste 0 -- -- 34
2018-03-27 13:00:00 20.4 6 Sudoeste 35 Noroeste 0 -- -- 37
2018-03-27 12:00:00 18.7 22 Noroeste 46 Norte 0 -- -- 43
2018-03-27 11:00:00 16.7 23 Norte 44 Noroeste 0 -- -- 48
2018-03-27 10:00:00 15.7 14 Noroeste 43 Norte 0 -- -- 50
2018-03-27 09:00:00 12 10 Norte 27 Nordeste 0 -- -- 59
2018-03-27 08:00:00 7.2 5 Sudoeste 14 Sudoeste 0 -- -- 62
2018-03-27 07:00:00 6.4 4 Noroeste 16 Noroeste 0 -- -- 62
2018-03-27 06:00:00 5.9 5 Norte 10 Norte 0 -- -- 63
2018-03-27 05:00:00 7.7 0 Calma 24 Oeste 0 -- -- 57
2018-03-27 04:00:00 9.9 13 Oeste 28 Oeste 0 -- -- 49
2018-03-27 03:00:00 10.1 6 Noroeste 28 Noroeste 0 -- -- 48
2018-03-27 02:00:00 10.2 6 Oeste 25 Oeste 0 -- -- 47
2018-03-27 01:00:00 9.9 8 Sudoeste 19 Oeste 0 -- -- 48
2018-03-27 00:00:00 9.9 4 Sudeste 16 Sudeste 0 -- -- 48
2018-03-26 23:00:00 10.5 9 Sudeste 19 Sur 0 -- -- 45
2018-03-26 22:00:00 11.3 5 Este 22 Noroeste 0 -- -- 42
2018-03-26 21:00:00 12.4 13 Noroeste 30 Norte 0 -- -- 41
2018-03-26 20:00:00 14.4 17 Norte 39 Noroeste 0 -- -- 36
2018-03-26 19:00:00 15 16 Norte 41 Noroeste 0 -- -- 36
2018-03-26 18:00:00 16.4 24 Norte 46 Norte 0 -- -- 34
2018-03-26 17:00:00 15.3 24 Norte 48 Noroeste 0 -- -- 36
2018-03-26 16:00:00 16.5 24 Norte 60 Norte 0 -- -- 35
2018-03-26 15:00:00 16.1 33 Norte 58 Norte 0 -- -- 38
2018-03-26 14:00:00 16 26 Norte 59 Norte 0 -- -- 40
2018-03-26 13:00:00 15.1 30 Norte 64 Norte 0 -- -- 41
2018-03-26 12:00:00 14.4 32 Norte 68 Norte 0 -- -- 43
2018-03-26 11:00:00 13.4 32 Norte 64 Norte 0 -- -- 44
2018-03-26 10:00:00 12.4 25 Norte 63 Norte 0 -- -- 48
2018-03-26 09:00:00 10.9 26 Norte 48 Noroeste 0 -- -- 51
2018-03-26 08:00:00 9.9 26 Norte 46 Norte 0 -- -- 54
2018-03-26 07:00:00 9.4 5 Norte 39 Nordeste 0 -- -- 56
2018-03-26 06:00:00 8.4 4 Oeste 23 Noroeste 0 -- -- 57
2018-03-26 05:00:00 8.3 4 Sur 20 Nordeste 0 -- -- 57
2018-03-26 04:00:00 8.4 8 Nordeste 27 Norte 0 -- -- 56
2018-03-26 03:00:00 7.3 4 Noroeste 19 Sudoeste 0 -- -- 59
2018-03-26 02:00:00 5.9 7 Noroeste 18 Sur 0 -- -- 64
2018-03-26 01:00:00 8.5 4 Norte 28 Norte 0 -- -- 56
2018-03-26 00:00:00 8.6 5 Norte 13 Norte 0 -- -- 58
2018-03-25 23:00:00 9.6 6 Norte 21 Norte 0 -- -- 54
2018-03-25 22:00:00 10.3 4 Nordeste 20 Nordeste 0 -- -- 55
2018-03-25 21:00:00 11.5 3 Norte 18 Nordeste 0 -- -- 47
2018-03-25 20:00:00 12.1 9 Nordeste 14 Nordeste 0 -- -- 45
2018-03-25 19:00:00 12 0 Calma 16 Este 0 -- -- 58
2018-03-25 18:00:00 13.3 7 Este 30 Norte 0 -- -- 43
2018-03-25 17:00:00 14 18 Norte 28 Norte 0 -- -- 38
2018-03-25 16:00:00 14.4 13 Norte 28 Norte 0 -- -- 34
2018-03-25 15:00:00 13.7 19 Norte 37 Norte 0 -- -- 39
2018-03-25 14:00:00 13.7 21 Norte 35 Norte 0 -- -- 39
2018-03-25 13:00:00 13.4 16 Nordeste 37 Norte 0 -- -- 38
2018-03-25 12:00:00 14.2 6 Norte 20 Nordeste 0 -- -- 37
2018-03-25 11:00:00 12.8 10 Nordeste 23 Noroeste 0 -- -- 40
2018-03-25 10:00:00 11.3 2 Norte 14 Norte 0 -- -- 46
2018-03-25 09:00:00 9.9 6 Este 26 Noroeste 0 -- -- 48
2018-03-25 08:00:00 8.4 11 Norte 37 Norte 0 -- -- 52
2018-03-25 07:00:00 8.6 15 Norte 36 Norte 0 -- -- 51
2018-03-25 06:00:00 8.8 21 Norte 50 Norte 0 -- -- 51
2018-03-25 05:00:00 9.1 9 Norte 30 Norte 0 -- -- 52
2018-03-25 03:00:00 10 13 Norte 39 Norte 0 -- -- 49
2018-03-25 01:00:00 9.6 6 Nordeste 36 Norte 0 -- -- 48
2018-03-25 00:00:00 9.8 8 Noroeste 29 Norte 0 -- -- 49
2018-03-24 23:00:00 10.7 5 Nordeste 29 Norte 0 -- -- 48
2018-03-24 22:00:00 10.7 12 Norte 39 Norte 0 -- -- 48
2018-03-24 21:00:00 10.9 10 Norte 34 Noroeste 0 -- -- 46
2018-03-24 20:00:00 11.3 20 Norte 42 Norte 0 -- -- 44
2018-03-24 19:00:00 11.4 8 Noroeste 64 Norte 0 -- -- 47
2018-03-24 18:00:00 14 24 Norte 49 Norte 0 -- -- 37
2018-03-24 17:00:00 14.5 25 Noroeste 66 Noroeste 0 -- -- 36
2018-03-24 16:00:00 14.3 32 Noroeste 83 Noroeste 0 -- -- 36
2018-03-24 15:00:00 14.1 44 Noroeste 80 Norte 0 -- -- 36
2018-03-24 14:00:00 13.6 44 Noroeste 76 Noroeste 0 -- -- 36
2018-03-24 13:00:00 13.4 39 Noroeste 78 Norte 0 -- -- 36
2018-03-24 12:00:00 12.1 37 Noroeste 74 Noroeste 0 -- -- 39
2018-03-24 11:00:00 11 37 Norte 67 Noroeste 0 -- -- 40
2018-03-24 10:00:00 10 28 Noroeste 55 Noroeste 0 -- -- 43
2018-03-24 09:00:00 8.4 25 Norte 62 Noroeste 0 -- -- 49
2018-03-24 08:00:00 8.1 13 Norte 56 Noroeste 0 -- -- 54
2018-03-24 07:00:00 8.2 31 Noroeste 62 Norte 0 -- -- 56
2018-03-24 06:00:00 8.7 18 Norte 40 Norte 0 -- -- 57
2018-03-24 05:00:00 8.6 5 Norte 50 Noroeste 0.8 -- -- 74
2018-03-24 04:00:00 10.2 4 Norte 9 Noroeste 0 -- -- 74
2018-03-24 03:00:00 11.5 4 Sudeste 17 Sur 0 -- -- 71
2018-03-24 02:00:00 12.2 3 Sur 14 Sudoeste 0 -- -- 65
2018-03-24 01:00:00 12.2 3 Noroeste 14 Sur 0 -- -- 62
2018-03-24 00:00:00 12.2 3 Oeste 10 Sur 0 -- -- 60
2018-03-23 23:00:00 13.5 5 Oeste 16 Norte 0 -- -- 55
2018-03-23 22:00:00 13.6 2 Sudoeste 14 Norte 0 -- -- 53
2018-03-23 21:00:00 13.4 5 Norte 9 Norte 0 -- -- 52
2018-03-23 20:00:00 14.6 4 Noroeste 10 Sudoeste 0 -- -- 49
2018-03-23 19:00:00 16.9 8 Norte 18 Noroeste 0 -- -- 41
2018-03-23 18:00:00 18.2 12 Noroeste 31 Noroeste 0 -- -- 38
2018-03-23 17:00:00 19.7 17 Oeste 30 Oeste 0 -- -- 36
2018-03-23 16:00:00 20.2 13 Norte 35 Norte 0 -- -- 34
2018-03-23 15:00:00 19.7 10 Noroeste 25 Noroeste 0 -- -- 35
2018-03-23 14:00:00 18.9 9 Nordeste 24 Nordeste 0 -- -- 35
2018-03-23 13:00:00 16.9 6 Sudeste 19 Este 0 -- -- 35
2018-03-23 12:00:00 14.4 5 Noroeste 25 Noroeste 0 -- -- 30
2018-03-23 11:00:00 13.5 7 Oeste 44 Norte 0 -- -- 28
2018-03-23 10:00:00 13.6 18 Norte 72 Norte 0 -- -- 20
2018-03-23 09:00:00 12.2 36 Norte 66 Noroeste 0 -- -- 23
2018-03-23 08:00:00 10.9 32 Norte 58 Norte 0 -- -- 27
2018-03-23 07:00:00 9.7 21 Norte 45 Norte 0 -- -- 26
2018-03-23 06:00:00 9.3 8 Sudeste 32 Noroeste 0 -- -- 25
2018-03-23 05:00:00 9.4 19 Noroeste 44 Noroeste 0 -- -- 27
2018-03-23 04:00:00 9.8 10 Noroeste 32 Oeste 0 -- -- 23
2018-03-23 03:00:00 9.5 9 Oeste 21 Sudoeste 0 -- -- 26
2018-03-23 02:00:00 9.8 7 Norte 40 Noroeste 0 -- -- 27
2018-03-23 01:00:00 9.8 15 Noroeste 35 Norte 0 -- -- 31
2018-03-23 00:00:00 7 15 Noroeste 28 Oeste 0 -- -- 43